createdAt,value
2019-04-03T00:00:14.526Z,11.17
2019-04-03T00:02:43.343Z,11.41
2019-04-03T00:05:14.197Z,11.52
2019-04-03T00:07:43.699Z,11.34
2019-04-03T00:10:13.633Z,11.59
2019-04-03T00:12:42.810Z,11.56
2019-04-03T00:15:13.667Z,11.67
2019-04-03T00:17:45.299Z,11.63
2019-04-03T00:20:13.566Z,11.54
2019-04-03T00:22:42.456Z,11.68
2019-04-03T00:25:12.143Z,11.57
2019-04-03T00:27:41.261Z,11.61
2019-04-03T00:30:11.637Z,11.38
2019-04-03T00:32:40.477Z,11.49
2019-04-03T00:35:10.292Z,11.65
2019-04-03T00:37:39.180Z,11.49
2019-04-03T00:40:09.201Z,11.57
2019-04-03T00:42:38.089Z,11.50
2019-04-03T00:45:08.785Z,11.64
2019-04-03T00:47:38.944Z,11.63
2019-04-03T00:50:08.846Z,11.67
2019-04-03T00:52:37.647Z,11.60
2019-04-03T00:55:07.045Z,11.68
2019-04-03T00:57:35.990Z,11.61
2019-04-03T01:00:07.764Z,11.64
2019-04-03T01:02:38.230Z,11.48
2019-04-03T01:05:07.277Z,11.47
2019-04-03T01:07:36.270Z,11.67
2019-04-03T01:10:06.490Z,11.59
2019-04-03T01:12:35.439Z,11.47
2019-04-03T01:15:06.133Z,11.30
2019-04-03T01:17:35.265Z,11.48
2019-04-03T01:20:06.332Z,11.46
2019-04-03T01:22:37.263Z,11.58
2019-04-03T01:25:08.844Z,11.53
2019-04-03T01:27:37.798Z,11.52
2019-04-03T01:30:08.308Z,11.66
2019-04-03T01:32:37.317Z,11.55
2019-04-03T01:35:09.086Z,11.55
2019-04-03T01:37:37.146Z,11.43
2019-04-03T01:40:07.346Z,11.58
2019-04-03T01:42:36.164Z,11.34
2019-04-03T01:45:05.859Z,11.21
2019-04-03T01:47:34.652Z,11.16
2019-04-03T01:50:03.649Z,11.14
2019-04-03T01:52:32.541Z,11.14
2019-04-03T01:55:03.346Z,10.97
2019-04-03T01:57:31.961Z,10.88
2019-04-03T02:00:00.852Z,10.83
2019-04-03T02:02:29.743Z,10.55
2019-04-03T02:04:58.731Z,10.71
2019-04-03T02:07:27.527Z,10.79
2019-04-03T02:09:56.574Z,10.67
2019-04-03T02:12:25.411Z,10.29
2019-04-03T02:14:54.304Z,10.23
2019-04-03T02:17:23.891Z,10.46
2019-04-03T02:19:53.114Z,10.28
2019-04-03T02:22:22.003Z,10.40
2019-04-03T02:24:50.919Z,10.27
2019-04-03T02:27:19.781Z,10.01
2019-04-03T02:29:48.671Z,10.05
2019-04-03T02:32:17.568Z,9.82
2019-04-03T02:34:46.455Z,9.97
2019-04-03T02:37:17.005Z,9.87
2019-04-03T02:39:45.979Z,10.05
2019-04-03T02:42:14.875Z,10.06
2019-04-03T02:44:43.827Z,9.66
2019-04-03T02:47:12.799Z,9.93
2019-04-03T02:49:43.028Z,9.41
2019-04-03T02:52:12.326Z,9.53
2019-04-03T02:54:45.566Z,9.70
2019-04-03T02:57:17.394Z,9.66
2019-04-03T02:59:44.912Z,9.85
2019-04-03T03:02:13.802Z,9.86
2019-04-03T03:04:44.216Z,9.99
2019-04-03T03:07:13.296Z,9.89
2019-04-03T03:09:45.561Z,10.14
2019-04-03T03:12:13.143Z,10.04
2019-04-03T03:14:42.028Z,10.07
2019-04-03T03:17:11.824Z,10.07
2019-04-03T03:19:40.811Z,9.98
2019-04-03T03:22:11.574Z,10.08
2019-04-03T03:24:40.742Z,10.01
2019-04-03T03:27:11.352Z,9.90
2019-04-03T03:29:42.595Z,9.81
2019-04-03T03:32:18.798Z,9.69
2019-04-03T03:34:52.984Z,9.28
2019-04-03T03:37:14.827Z,9.64
2019-04-03T03:39:44.632Z,9.45
2019-04-03T03:42:14.885Z,9.51
2019-04-03T03:44:46.041Z,9.60
2019-04-03T03:47:15.843Z,9.68
2019-04-03T03:49:48.419Z,9.39
2019-04-03T03:52:17.002Z,9.56
2019-04-03T03:54:49.645Z,9.45
2019-04-03T03:57:17.825Z,9.63
2019-04-03T03:59:49.590Z,9.44
2019-04-03T04:02:17.798Z,9.54
2019-04-03T04:04:48.398Z,9.28
2019-04-03T04:07:17.629Z,9.13
2019-04-03T04:09:50.819Z,9.21
2019-04-03T04:12:19.701Z,9.19
2019-04-03T04:14:48.908Z,9.21
2019-04-03T04:17:18.954Z,9.34
2019-04-03T04:19:48.274Z,9.62
2019-04-03T04:22:21.169Z,9.45
2019-04-03T04:24:50.465Z,9.46
2019-04-03T04:27:19.673Z,9.59
2019-04-03T04:29:48.935Z,9.45
2019-04-03T04:32:17.868Z,9.66
2019-04-03T04:34:49.502Z,9.58
2019-04-03T04:37:17.417Z,9.56
2019-04-03T04:39:46.308Z,9.49
2019-04-03T04:42:15.201Z,9.67
2019-04-03T04:44:44.092Z,9.67
2019-04-03T04:47:15.060Z,9.58
2019-04-03T04:49:43.624Z,9.53
2019-04-03T04:52:12.750Z,9.56
2019-04-03T04:54:43.116Z,9.14
2019-04-03T04:57:13.367Z,9.39
2019-04-03T04:59:42.985Z,9.08
2019-04-03T05:02:13.811Z,9.12
2019-04-03T05:04:42.702Z,9.43
2019-04-03T05:07:11.895Z,9.37
2019-04-03T05:09:40.788Z,9.37
2019-04-03T05:12:11.624Z,9.29
2019-04-03T05:14:40.515Z,9.09
2019-04-03T05:17:10.431Z,8.99
2019-04-03T05:19:39.457Z,9.03
2019-04-03T05:22:08.522Z,9.00
2019-04-03T05:24:37.515Z,9.12
2019-04-03T05:27:07.852Z,9.28
2019-04-03T05:29:37.241Z,9.44
2019-04-03T05:32:06.460Z,9.59
2019-04-03T05:34:35.844Z,9.55
2019-04-03T05:37:05.129Z,9.44
2019-04-03T05:39:35.784Z,9.55
2019-04-03T05:42:05.078Z,9.55
2019-04-03T05:44:35.091Z,9.27
2019-04-03T05:47:04.156Z,9.67
2019-04-03T05:49:34.511Z,9.14
2019-04-03T05:52:04.066Z,9.42
2019-04-03T05:54:33.846Z,9.69
2019-04-03T05:57:02.963Z,9.63
2019-04-03T05:59:33.695Z,9.80
2019-04-03T06:02:13.855Z,9.85
2019-04-03T06:04:33.287Z,9.67
2019-04-03T06:07:02.177Z,9.77
2019-04-03T06:09:31.067Z,9.93
2019-04-03T06:11:59.960Z,9.72
2019-04-03T06:14:29.977Z,9.43
2019-04-03T06:16:58.869Z,9.54
2019-04-03T06:19:27.765Z,9.73
2019-04-03T06:21:56.657Z,9.98
2019-04-03T06:24:25.724Z,9.71
2019-04-03T06:26:54.559Z,9.51
2019-04-03T06:29:23.729Z,9.15
2019-04-03T06:31:52.526Z,9.61
2019-04-03T06:34:21.539Z,10.03
2019-04-03T06:36:51.174Z,10.28
2019-04-03T06:39:22.299Z,10.23
2019-04-03T06:41:51.148Z,10.38
2019-04-03T06:44:20.521Z,10.35
2019-04-03T06:46:53.650Z,10.43
2019-04-03T06:49:22.549Z,10.39
2019-04-03T06:51:51.335Z,10.22
2019-04-03T06:54:20.225Z,10.16
2019-04-03T06:56:52.086Z,10.28
2019-04-03T06:59:19.777Z,10.08
2019-04-03T07:01:48.739Z,9.88
2019-04-03T07:04:17.839Z,10.09
2019-04-03T07:06:46.729Z,10.32
2019-04-03T07:09:23.066Z,10.41
2019-04-03T07:11:46.354Z,10.37
2019-04-03T07:14:15.247Z,10.37
2019-04-03T07:16:44.381Z,10.18
2019-04-03T07:19:13.333Z,9.63
2019-04-03T07:21:42.333Z,10.23
2019-04-03T07:24:12.171Z,9.68
2019-04-03T07:26:41.138Z,10.06
2019-04-03T07:29:12.102Z,10.06
2019-04-03T07:31:41.987Z,9.99
2019-04-03T07:34:11.323Z,10.50
2019-04-03T07:36:44.662Z,10.36
2019-04-03T07:39:13.278Z,10.69
2019-04-03T07:41:42.556Z,10.84
2019-04-03T07:44:11.571Z,10.85
2019-04-03T07:46:43.682Z,11.06
2019-04-03T07:49:14.263Z,11.06
2019-04-03T07:51:44.471Z,11.15
2019-04-03T07:54:13.384Z,11.23
2019-04-03T07:56:42.273Z,11.27
2019-04-03T07:59:11.264Z,11.30
2019-04-03T08:01:41.345Z,11.32
2019-04-03T08:04:10.949Z,11.34
2019-04-03T08:06:40.213Z,11.28
2019-04-03T08:09:10.499Z,11.28
2019-04-03T08:11:39.410Z,11.38
2019-04-03T08:14:09.091Z,11.43
2019-04-03T08:16:41.943Z,11.37
2019-04-03T08:19:11.094Z,11.40
2019-04-03T08:21:40.295Z,11.50
2019-04-03T08:24:09.904Z,11.69
2019-04-03T08:26:39.188Z,11.65
2019-04-03T08:29:08.605Z,11.81
2019-04-03T08:31:37.808Z,11.77
2019-04-03T08:34:15.988Z,11.86
2019-04-03T08:36:39.508Z,11.90
2019-04-03T08:39:09.497Z,12.07
2019-04-03T08:41:38.726Z,12.08
2019-04-03T08:44:09.186Z,12.17
2019-04-03T08:46:38.690Z,12.19
2019-04-03T08:49:09.622Z,12.00
2019-04-03T08:51:38.767Z,12.07
2019-04-03T08:54:10.232Z,12.42
2019-04-03T08:56:38.637Z,11.99
2019-04-03T08:59:08.216Z,12.10
2019-04-03T09:01:37.435Z,12.29
2019-04-03T09:04:06.296Z,12.31
2019-04-03T09:06:35.189Z,12.31
2019-04-03T09:09:06.537Z,12.20
2019-04-03T09:11:36.320Z,12.07
2019-04-03T09:14:06.204Z,11.98
2019-04-03T09:16:35.059Z,11.73
2019-04-03T09:19:03.957Z,11.58
2019-04-03T09:21:32.992Z,11.70
2019-04-03T09:24:01.800Z,11.80
2019-04-03T09:26:34.556Z,11.66
2019-04-03T09:29:01.244Z,11.48
2019-04-03T09:31:31.469Z,11.49
2019-04-03T09:34:00.363Z,11.69
2019-04-03T09:36:29.260Z,11.67
2019-04-03T09:38:58.276Z,11.51
2019-04-03T09:41:27.305Z,11.64
2019-04-03T09:43:56.733Z,11.38
2019-04-03T09:46:25.768Z,10.76
2019-04-03T09:48:54.766Z,11.05
2019-04-03T09:51:24.114Z,11.03
2019-04-03T09:53:53.028Z,10.82
2019-04-03T09:56:22.209Z,10.88
2019-04-03T09:58:51.218Z,10.65
2019-04-03T10:01:20.111Z,10.32
2019-04-03T10:03:49.265Z,10.34
2019-04-03T10:06:18.200Z,10.01
2019-04-03T10:08:47.165Z,9.90
2019-04-03T10:11:19.402Z,10.11
2019-04-03T10:13:46.621Z,9.71
2019-04-03T10:16:16.815Z,9.26
2019-04-03T10:18:45.833Z,9.22
2019-04-03T10:21:14.720Z,8.83
2019-04-03T10:23:43.612Z,8.75
2019-04-03T10:26:12.502Z,8.53
2019-04-03T10:28:42.548Z,8.39
2019-04-03T10:31:12.333Z,8.36
2019-04-03T10:33:41.223Z,8.21
2019-04-03T10:36:11.954Z,7.87
2019-04-03T10:38:42.687Z,7.32
2019-04-03T10:41:14.247Z,7.54
2019-04-03T10:43:43.242Z,7.34
2019-04-03T10:46:12.439Z,7.19
2019-04-03T10:48:41.368Z,7.49
2019-04-03T10:51:10.739Z,7.41
2019-04-03T10:53:39.938Z,7.60
2019-04-03T10:56:10.058Z,6.97
2019-04-03T10:58:42.234Z,7.28
2019-04-03T11:01:10.603Z,7.18
2019-04-03T11:03:39.543Z,6.81
2019-04-03T11:06:09.464Z,6.99
2019-04-03T11:08:38.406Z,6.55
2019-04-03T11:11:08.316Z,6.07
2019-04-03T11:13:37.247Z,6.08
2019-04-03T11:16:07.067Z,6.07
2019-04-03T11:18:35.912Z,6.15
2019-04-03T11:21:04.903Z,5.73
2019-04-03T11:23:39.004Z,5.72
2019-04-03T11:26:04.810Z,5.45
2019-04-03T11:28:37.064Z,5.49
2019-04-03T11:31:04.153Z,5.29
2019-04-03T11:33:33.057Z,5.66
2019-04-03T11:36:03.496Z,5.42
2019-04-03T11:38:32.363Z,5.13
2019-04-03T11:41:13.100Z,4.92
2019-04-03T11:43:33.374Z,4.99
2019-04-03T11:46:02.489Z,5.07
2019-04-03T11:48:31.622Z,5.11
2019-04-03T11:51:00.672Z,5.40
2019-04-03T11:53:29.602Z,5.04
2019-04-03T11:55:58.680Z,5.22
2019-04-03T11:58:27.661Z,5.22
2019-04-03T12:00:56.579Z,5.72
2019-04-03T12:03:25.479Z,5.88
2019-04-03T12:05:54.682Z,5.93
2019-04-03T12:08:23.829Z,5.81
2019-04-03T12:10:52.956Z,6.08
2019-04-03T12:13:22.067Z,5.94
2019-04-03T12:15:53.533Z,6.02
2019-04-03T12:18:21.922Z,5.87
2019-04-03T12:20:50.889Z,5.69
2019-04-03T12:23:19.778Z,5.00
2019-04-03T12:25:48.673Z,5.32
2019-04-03T12:28:19.546Z,5.45
2019-04-03T12:30:50.545Z,5.47
2019-04-03T12:33:21.217Z,5.48
2019-04-03T12:35:49.975Z,5.04
2019-04-03T12:38:20.457Z,5.18
2019-04-03T12:40:49.388Z,5.49
2019-04-03T12:43:18.654Z,5.40
2019-04-03T12:45:47.954Z,5.33
2019-04-03T12:48:17.381Z,5.53
2019-04-03T12:50:47.413Z,5.73
2019-04-03T12:53:17.299Z,5.47
2019-04-03T12:55:46.648Z,5.44
2019-04-03T12:58:15.601Z,5.58
2019-04-03T13:00:46.140Z,5.37
2019-04-03T13:03:15.758Z,5.27
2019-04-03T13:05:45.339Z,5.24
2019-04-03T13:08:15.384Z,5.28
2019-04-03T13:10:47.587Z,5.39
2019-04-03T13:13:14.908Z,5.26
2019-04-03T13:15:43.902Z,5.13
2019-04-03T13:18:13.418Z,5.15
2019-04-03T13:20:42.363Z,5.14
2019-04-03T13:23:13.311Z,5.13
2019-04-03T13:25:43.275Z,5.17
2019-04-03T13:28:12.676Z,4.06
2019-04-03T13:30:43.408Z,4.71
2019-04-03T13:33:12.248Z,4.71
2019-04-03T13:35:41.277Z,4.94
2019-04-03T13:38:11.092Z,4.78
2019-04-03T13:40:39.983Z,4.66
2019-04-03T13:43:10.322Z,4.83
2019-04-03T13:45:40.020Z,4.87
2019-04-03T13:48:12.745Z,4.56
2019-04-03T13:50:40.205Z,4.64
2019-04-03T13:53:09.769Z,4.27
2019-04-03T13:55:40.218Z,4.22
2019-04-03T13:58:12.670Z,4.12
2019-04-03T14:00:41.659Z,4.23
2019-04-03T14:03:11.539Z,4.09
2019-04-03T14:05:42.661Z,4.34
2019-04-03T14:08:13.594Z,4.35
2019-04-03T14:10:42.451Z,4.07
2019-04-03T14:13:13.797Z,3.84
2019-04-03T14:15:42.693Z,3.62
2019-04-03T14:18:12.093Z,3.49
2019-04-03T14:20:42.526Z,3.26
2019-04-03T14:23:12.229Z,4.30
2019-04-03T14:25:41.225Z,4.18
2019-04-03T14:28:10.631Z,4.36
2019-04-03T14:30:39.524Z,4.17
2019-04-03T14:33:08.717Z,3.62
2019-04-03T14:35:48.836Z,3.76
2019-04-03T14:38:11.688Z,3.37
2019-04-03T14:40:39.646Z,3.43
2019-04-03T14:43:08.990Z,3.79
2019-04-03T14:45:39.524Z,4.07
2019-04-03T14:48:09.269Z,4.21
2019-04-03T14:50:40.282Z,4.08
2019-04-03T14:53:09.984Z,3.82
2019-04-03T14:55:47.314Z,3.95
2019-04-03T14:58:10.858Z,3.87
2019-04-03T15:00:40.238Z,3.34
2019-04-03T15:03:10.369Z,3.79
2019-04-03T15:05:42.491Z,3.39
2019-04-03T15:08:11.103Z,3.86
2019-04-03T15:10:40.441Z,3.95
2019-04-03T15:13:13.718Z,3.85
2019-04-03T15:15:42.382Z,3.87
2019-04-03T15:18:11.493Z,3.50
2019-04-03T15:20:40.487Z,3.39
2019-04-03T15:23:12.142Z,3.29
2019-04-03T15:25:42.648Z,3.45
2019-04-03T15:28:12.073Z,3.32
2019-04-03T15:30:43.068Z,3.77
2019-04-03T15:33:12.684Z,3.71
2019-04-03T15:35:41.716Z,3.69
2019-04-03T15:38:13.425Z,3.77
2019-04-03T15:40:41.903Z,3.68
2019-04-03T15:43:16.149Z,3.80
2019-04-03T15:45:44.332Z,3.97
2019-04-03T15:48:13.236Z,4.15
2019-04-03T15:50:42.147Z,3.95
2019-04-03T15:53:11.567Z,3.55
2019-04-03T15:55:40.631Z,3.91
2019-04-03T15:58:09.721Z,4.17
2019-04-03T16:00:39.165Z,4.43
2019-04-03T16:03:09.552Z,4.31
2019-04-03T16:05:38.639Z,4.35
2019-04-03T16:08:10.008Z,4.13
2019-04-03T16:10:38.895Z,4.20
2019-04-03T16:13:08.396Z,4.11
2019-04-03T16:15:37.771Z,4.00
2019-04-03T16:18:08.350Z,4.17
2019-04-03T16:20:37.421Z,4.26
2019-04-03T16:23:06.957Z,4.16
2019-04-03T16:25:36.023Z,4.16
2019-04-03T16:28:05.232Z,4.11
2019-04-03T16:30:34.324Z,4.21
2019-04-03T16:33:04.955Z,4.03
2019-04-03T16:35:34.160Z,4.24
2019-04-03T16:38:03.586Z,4.19
2019-04-03T16:40:36.991Z,4.10
2019-04-03T16:43:04.811Z,4.05
2019-04-03T16:45:37.654Z,4.24
2019-04-03T16:48:07.615Z,3.92
2019-04-03T16:50:36.913Z,4.06
2019-04-03T16:53:08.062Z,3.88
2019-04-03T16:55:38.593Z,3.96
2019-04-03T16:58:08.310Z,4.10
2019-04-03T17:00:41.392Z,4.00
2019-04-03T17:03:12.132Z,4.12
2019-04-03T17:05:41.508Z,4.29
2019-04-03T17:08:12.312Z,4.12
2019-04-03T17:10:41.366Z,4.06
2019-04-03T17:13:11.254Z,4.22
2019-04-03T17:15:40.730Z,4.00
2019-04-03T17:18:10.872Z,4.00
2019-04-03T17:20:39.794Z,3.93
2019-04-03T17:23:11.059Z,3.86
2019-04-03T17:25:48.217Z,4.02
2019-04-03T17:28:11.587Z,4.19
2019-04-03T17:30:41.911Z,4.19
2019-04-03T17:33:11.214Z,4.21
2019-04-03T17:35:40.249Z,4.37
2019-04-03T17:38:10.060Z,4.43
2019-04-03T17:40:38.911Z,4.43
2019-04-03T17:43:09.233Z,4.41
2019-04-03T17:45:39.250Z,3.88
2019-04-03T17:48:08.973Z,3.88
2019-04-03T17:50:37.870Z,4.21
2019-04-03T17:53:07.089Z,4.33
2019-04-03T17:55:36.047Z,3.99
2019-04-03T17:58:05.050Z,4.17
2019-04-03T18:00:34.037Z,4.24
2019-04-03T18:03:02.930Z,4.22
2019-04-03T18:05:33.209Z,4.27
2019-04-03T18:08:02.351Z,4.31
2019-04-03T18:10:32.670Z,4.59
2019-04-03T18:13:01.560Z,4.24
2019-04-03T18:15:32.778Z,4.29
2019-04-03T18:18:02.836Z,3.98
2019-04-03T18:20:31.508Z,3.82
2019-04-03T18:23:00.400Z,3.44
2019-04-03T18:25:29.357Z,3.57
2019-04-03T18:27:59.828Z,3.59
2019-04-03T18:30:29.023Z,3.67
2019-04-03T18:32:57.916Z,3.63
2019-04-03T18:35:26.812Z,3.32
2019-04-03T18:37:55.604Z,3.31
2019-04-03T18:40:24.586Z,3.29
2019-04-03T18:42:53.501Z,3.47
2019-04-03T18:45:25.395Z,3.36
2019-04-03T18:47:52.898Z,3.32
2019-04-03T18:50:21.939Z,3.56
2019-04-03T18:52:50.889Z,3.61
2019-04-03T18:55:19.877Z,3.78
2019-04-03T18:57:50.232Z,3.68
2019-04-03T19:00:20.849Z,3.82
2019-04-03T19:02:51.365Z,3.84
2019-04-03T19:05:20.363Z,3.74
2019-04-03T19:07:49.355Z,3.93
2019-04-03T19:10:22.907Z,3.83
2019-04-03T19:12:51.947Z,3.73
2019-04-03T19:15:22.378Z,3.61
2019-04-03T19:18:00.091Z,3.86
2019-04-03T19:20:21.800Z,3.74
2019-04-03T19:23:01.994Z,3.90
2019-04-03T19:25:21.319Z,3.55
2019-04-03T19:27:52.255Z,3.17
2019-04-03T19:30:21.458Z,3.34
2019-04-03T19:32:50.361Z,3.50
2019-04-03T19:35:19.238Z,3.21
2019-04-03T19:37:48.132Z,3.26
2019-04-03T19:40:17.125Z,2.94
2019-04-03T19:42:48.768Z,2.76
2019-04-03T19:45:16.765Z,3.28
2019-04-03T19:47:45.744Z,3.48
2019-04-03T19:50:14.741Z,3.70
2019-04-03T19:52:43.701Z,3.59
2019-04-03T19:55:23.168Z,3.67
2019-04-03T19:57:51.325Z,3.87
2019-04-03T20:00:20.916Z,3.83
2019-04-03T20:02:51.377Z,3.76
2019-04-03T20:05:20.271Z,3.65
2019-04-03T20:07:49.165Z,3.75
2019-04-03T20:10:18.159Z,3.75
2019-04-03T20:12:48.069Z,3.93
2019-04-03T20:15:17.063Z,3.88
2019-04-03T20:17:46.057Z,3.81
2019-04-03T20:20:15.049Z,4.06
2019-04-03T20:22:43.947Z,3.85
2019-04-03T20:25:15.198Z,3.96
2019-04-03T20:27:47.072Z,3.46
2019-04-03T20:30:15.124Z,3.59
2019-04-03T20:32:45.552Z,3.68
2019-04-03T20:35:14.444Z,3.72
2019-04-03T20:37:44.080Z,3.63
2019-04-03T20:40:17.000Z,3.75
2019-04-03T20:42:47.057Z,3.61
2019-04-03T20:45:18.774Z,3.55
2019-04-03T20:47:46.480Z,3.37
2019-04-03T20:50:16.234Z,3.45
2019-04-03T20:52:46.199Z,3.82
2019-04-03T20:55:15.817Z,3.58
2019-04-03T20:57:54.860Z,3.75
2019-04-03T21:00:18.545Z,3.55
2019-04-03T21:02:48.021Z,3.33
2019-04-03T21:05:18.726Z,3.50
2019-04-03T21:07:47.434Z,3.55
2019-04-03T21:10:17.553Z,3.46
2019-04-03T21:12:47.471Z,3.58
2019-04-03T21:15:16.360Z,3.63
2019-04-03T21:17:45.273Z,3.58
2019-04-03T21:20:14.346Z,3.62
2019-04-03T21:22:43.239Z,3.22
2019-04-03T21:25:12.847Z,3.27
2019-04-03T21:27:41.740Z,3.60
2019-04-03T21:30:12.339Z,3.55
2019-04-03T21:32:41.160Z,3.52
2019-04-03T21:35:10.972Z,3.73
2019-04-03T21:37:40.644Z,3.73
2019-04-03T21:40:10.494Z,3.77
2019-04-03T21:42:39.389Z,3.52
2019-04-03T21:45:08.590Z,3.55
2019-04-03T21:47:37.475Z,3.45
2019-04-03T21:50:07.193Z,3.19
2019-04-03T21:52:36.089Z,3.43
2019-04-03T21:55:08.663Z,3.51
2019-04-03T21:57:38.461Z,3.76
2019-04-03T22:00:12.990Z,3.50
2019-04-03T22:02:40.350Z,3.18
2019-04-03T22:05:11.071Z,3.03
2019-04-03T22:07:39.870Z,3.27
2019-04-03T22:10:10.177Z,3.30
2019-04-03T22:12:39.090Z,3.50
2019-04-03T22:15:08.897Z,3.31
2019-04-03T22:17:37.788Z,3.28
2019-04-03T22:20:07.855Z,3.42
2019-04-03T22:22:36.804Z,3.36
2019-04-03T22:25:08.565Z,3.52
2019-04-03T22:27:36.631Z,3.55
2019-04-03T22:30:06.061Z,3.53
2019-04-03T22:32:34.921Z,3.50
2019-04-03T22:35:04.532Z,3.34
2019-04-03T22:37:35.124Z,3.47
2019-04-03T22:40:04.739Z,2.73
2019-04-03T22:42:33.563Z,2.56
2019-04-03T22:45:02.458Z,3.25
2019-04-03T22:47:31.343Z,3.39
2019-04-03T22:50:00.234Z,2.85
2019-04-03T22:52:29.125Z,2.87
2019-04-03T22:54:58.014Z,3.02
2019-04-03T22:57:29.470Z,3.22
2019-04-03T22:59:58.457Z,3.28
2019-04-03T23:02:27.350Z,3.21
2019-04-03T23:04:56.343Z,3.09
2019-04-03T23:07:25.261Z,3.00
2019-04-03T23:09:56.500Z,3.42
2019-04-03T23:12:26.192Z,3.42
2019-04-03T23:14:55.088Z,3.34
2019-04-03T23:17:23.981Z,3.37
2019-04-03T23:19:52.869Z,3.33
2019-04-03T23:22:21.758Z,3.35
2019-04-03T23:24:50.649Z,3.21
2019-04-03T23:27:19.541Z,3.07
2019-04-03T23:29:48.432Z,3.08
2019-04-03T23:32:18.552Z,3.00
2019-04-03T23:34:49.438Z,2.95
2019-04-03T23:37:18.076Z,3.05
2019-04-03T23:39:47.068Z,2.99
2019-04-03T23:42:15.961Z,3.02
2019-04-03T23:44:44.855Z,2.94
2019-04-03T23:47:16.360Z,3.14
2019-04-03T23:49:44.292Z,3.00
2019-04-03T23:52:13.164Z,3.01
2019-04-03T23:54:42.057Z,3.09
2019-04-03T23:57:11.459Z,3.02
2019-04-03T23:59:40.346Z,3.01
